createdAt,value
2022-12-15T00:01:49.310Z,17.40
2022-12-15T00:04:34.536Z,16.80
2022-12-15T00:07:19.999Z,18.15
2022-12-15T00:10:06.484Z,18.67
2022-12-15T00:12:51.706Z,15.80
2022-12-15T00:15:37.265Z,16.73
2022-12-15T00:18:23.838Z,18.20
2022-12-15T00:21:09.155Z,18.73
2022-12-15T00:23:54.724Z,20.38
2022-12-15T00:26:41.187Z,14.52
2022-12-15T00:29:26.660Z,18.77
2022-12-15T00:32:12.191Z,14.27
2022-12-15T00:34:57.473Z,16.98
2022-12-15T00:37:42.888Z,17.88
2022-12-15T00:40:11.547Z,16.17
2022-12-15T00:42:40.583Z,17.70
2022-12-15T00:45:09.454Z,16.40
2022-12-15T00:47:39.235Z,17.92
2022-12-15T00:50:25.087Z,20.75
2022-12-15T00:53:10.274Z,16.27
2022-12-15T00:55:55.793Z,14.88
2022-12-15T00:58:42.669Z,17.63
2022-12-15T01:01:28.997Z,16.48
2022-12-15T01:04:14.963Z,15.05
2022-12-15T01:07:00.243Z,16.25
2022-12-15T01:09:45.805Z,16.00
2022-12-15T01:12:30.865Z,17.92
2022-12-15T01:15:17.446Z,14.95
2022-12-15T01:18:02.526Z,15.90
2022-12-15T01:20:34.509Z,15.00
2022-12-15T01:23:02.325Z,16.23
2022-12-15T01:25:32.378Z,15.20
2022-12-15T01:28:02.058Z,16.38
2022-12-15T01:30:31.195Z,17.08
2022-12-15T01:32:58.915Z,18.13
2022-12-15T01:35:27.633Z,15.57
2022-12-15T01:37:55.267Z,17.63
2022-12-15T01:40:40.946Z,17.40
2022-12-15T01:43:12.888Z,13.52
2022-12-15T01:45:53.962Z,16.73
2022-12-15T01:48:29.669Z,16.90
2022-12-15T01:51:05.598Z,14.43
2022-12-15T01:53:37.663Z,14.60
2022-12-15T01:56:07.003Z,18.55
2022-12-15T01:58:36.329Z,15.55
2022-12-15T02:01:05.714Z,15.93
2022-12-15T02:03:33.938Z,14.15
2022-12-15T02:06:02.614Z,18.15
2022-12-15T02:08:31.714Z,17.90
2022-12-15T02:11:16.557Z,14.20
2022-12-15T02:13:53.514Z,15.15
2022-12-15T02:16:31.647Z,22.60
2022-12-15T02:19:09.499Z,16.52
2022-12-15T02:21:43.287Z,18.63
2022-12-15T02:24:29.503Z,15.77
2022-12-15T02:27:34.206Z,20.80
2022-12-15T02:30:21.113Z,15.18
2022-12-15T02:33:04.911Z,15.48
2022-12-15T02:35:41.617Z,14.38
2022-12-15T02:38:10.036Z,14.20
2022-12-15T02:40:38.091Z,14.50
2022-12-15T02:43:09.436Z,17.83
2022-12-15T02:45:47.544Z,15.73
2022-12-15T02:48:24.081Z,18.67
2022-12-15T02:51:12.993Z,16.95
2022-12-15T02:54:12.364Z,14.68
2022-12-15T02:56:46.210Z,15.45
2022-12-15T02:59:20.632Z,13.38
2022-12-15T03:01:54.893Z,15.05
2022-12-15T03:04:23.676Z,17.27
2022-12-15T03:07:00.575Z,14.70
2022-12-15T03:09:29.069Z,18.65
2022-12-15T03:11:56.689Z,10.90
2022-12-15T03:14:25.613Z,13.68
2022-12-15T03:16:57.137Z,17.38
2022-12-15T03:19:25.825Z,15.85
2022-12-15T03:21:53.754Z,19.10
2022-12-15T03:24:24.592Z,17.38
2022-12-15T03:26:53.257Z,18.08
2022-12-15T03:29:20.963Z,15.65
2022-12-15T03:31:51.375Z,13.43
2022-12-15T03:34:26.275Z,20.33
2022-12-15T03:36:54.241Z,17.48
2022-12-15T03:39:21.887Z,16.55
2022-12-15T03:41:49.562Z,17.08
2022-12-15T03:44:18.303Z,17.20
2022-12-15T03:46:45.980Z,19.25
2022-12-15T03:49:13.578Z,20.52
2022-12-15T03:51:42.779Z,15.90
2022-12-15T03:54:10.441Z,13.43
2022-12-15T03:56:38.119Z,19.98
2022-12-15T03:59:05.765Z,17.10
2022-12-15T04:01:35.614Z,18.23
2022-12-15T04:04:05.125Z,18.98
2022-12-15T04:06:33.405Z,22.23
2022-12-15T04:09:04.777Z,19.83
2022-12-15T04:11:32.320Z,19.92
2022-12-15T04:14:00.071Z,26.77
2022-12-15T04:16:27.682Z,20.58
2022-12-15T04:19:09.301Z,19.23
2022-12-15T04:21:37.140Z,20.27
2022-12-15T04:24:24.925Z,17.33
2022-12-15T04:27:10.206Z,18.98
2022-12-15T04:29:55.703Z,18.67
2022-12-15T04:32:41.549Z,16.33
2022-12-15T04:35:28.727Z,17.48
2022-12-15T04:38:14.403Z,14.60
2022-12-15T04:41:01.504Z,20.30
2022-12-15T04:43:47.130Z,20.77
2022-12-15T04:46:32.840Z,16.75
2022-12-15T04:49:18.191Z,16.33
2022-12-15T04:52:03.325Z,19.42
2022-12-15T04:54:49.853Z,19.67
2022-12-15T04:57:36.462Z,19.45
2022-12-15T05:00:22.636Z,17.92
2022-12-15T05:03:07.870Z,22.33
2022-12-15T05:05:53.451Z,19.30
2022-12-15T05:08:38.763Z,20.23
2022-12-15T05:11:24.102Z,14.65
2022-12-15T05:14:10.760Z,23.08
2022-12-15T05:16:56.416Z,21.45
2022-12-15T05:19:41.516Z,14.35
2022-12-15T05:22:26.845Z,16.75
2022-12-15T05:25:12.223Z,19.38
2022-12-15T05:27:58.801Z,18.40
2022-12-15T05:30:45.484Z,20.95
2022-12-15T05:33:13.325Z,20.23
2022-12-15T05:35:41.087Z,18.88
2022-12-15T05:38:09.035Z,20.00
2022-12-15T05:40:37.330Z,21.15
2022-12-15T05:43:05.005Z,18.30
2022-12-15T05:45:34.177Z,20.13
2022-12-15T05:48:02.083Z,18.23
2022-12-15T05:50:29.815Z,16.58
2022-12-15T05:52:59.256Z,17.40
2022-12-15T05:55:26.911Z,16.98
2022-12-15T05:57:55.166Z,18.00
2022-12-15T06:00:23.777Z,16.58
2022-12-15T06:02:52.833Z,15.43
2022-12-15T06:05:20.655Z,17.33
2022-12-15T06:07:48.498Z,18.27
2022-12-15T06:10:16.198Z,20.00
2022-12-15T06:12:43.982Z,20.20
2022-12-15T06:15:11.961Z,18.15
2022-12-15T06:17:39.550Z,16.85
2022-12-15T06:20:09.370Z,18.75
2022-12-15T06:22:36.936Z,18.48
2022-12-15T06:25:05.140Z,18.75
2022-12-15T06:27:32.860Z,16.50
2022-12-15T06:30:01.227Z,18.80
2022-12-15T06:32:29.148Z,18.30
2022-12-15T06:34:57.000Z,21.30
2022-12-15T06:37:27.679Z,18.60
2022-12-15T06:39:58.004Z,19.52
2022-12-15T06:42:25.578Z,17.88
2022-12-15T06:44:53.243Z,18.73
2022-12-15T06:47:20.914Z,18.38
2022-12-15T06:49:48.613Z,23.23
2022-12-15T06:52:16.264Z,17.48
2022-12-15T06:54:45.257Z,16.38
2022-12-15T06:57:12.911Z,20.20
2022-12-15T06:59:40.771Z,18.70
2022-12-15T07:02:17.577Z,22.08
2022-12-15T07:04:47.209Z,23.08
2022-12-15T07:07:14.902Z,15.57
2022-12-15T07:09:42.619Z,17.25
2022-12-15T07:13:14.075Z,19.33
2022-12-15T07:19:23.594Z,18.60
2022-12-15T07:22:48.996Z,19.70
2022-12-15T07:31:21.776Z,20.73
2022-12-15T07:33:51.850Z,18.70
2022-12-15T07:36:19.589Z,18.38
2022-12-15T07:38:50.428Z,18.60
2022-12-15T07:41:19.513Z,18.55
2022-12-15T07:43:49.142Z,19.05
2022-12-15T07:46:17.891Z,21.45
2022-12-15T07:48:50.041Z,16.73
2022-12-15T07:51:22.389Z,15.25
2022-12-15T07:53:54.242Z,19.23
2022-12-15T07:56:25.203Z,18.42
2022-12-15T07:59:49.625Z,21.33
2022-12-15T08:02:41.373Z,14.95
2022-12-15T08:05:39.355Z,14.93
2022-12-15T08:08:34.579Z,16.70
2022-12-15T08:11:27.505Z,18.00
2022-12-15T08:14:11.942Z,18.58
2022-12-15T08:16:54.408Z,16.70
2022-12-15T08:19:50.095Z,14.10
2022-12-15T08:22:19.029Z,20.85
2022-12-15T08:24:48.201Z,20.75
2022-12-15T08:27:16.185Z,16.42
2022-12-15T08:29:52.167Z,21.55
2022-12-15T08:32:20.370Z,14.90
2022-12-15T08:34:49.681Z,16.52
2022-12-15T08:37:17.308Z,15.95
2022-12-15T08:39:44.892Z,20.23
2022-12-15T08:42:12.459Z,18.83
2022-12-15T08:44:40.800Z,16.92
2022-12-15T08:47:08.655Z,15.40
2022-12-15T08:49:36.262Z,17.70
2022-12-15T08:52:05.292Z,16.67
2022-12-15T08:54:33.381Z,20.45
2022-12-15T08:57:01.177Z,17.05
2022-12-15T08:59:28.956Z,17.80
2022-12-15T09:01:56.547Z,14.57
2022-12-15T09:04:24.540Z,16.95
2022-12-15T09:06:52.151Z,16.58
2022-12-15T09:09:22.518Z,16.35
2022-12-15T09:11:50.673Z,17.58
2022-12-15T09:14:22.783Z,15.65
2022-12-15T09:16:55.041Z,22.17
2022-12-15T09:19:22.752Z,18.25
2022-12-15T09:21:50.412Z,16.63
2022-12-15T09:24:28.749Z,20.55
2022-12-15T09:27:04.080Z,14.98
2022-12-15T09:29:31.644Z,16.20
2022-12-15T09:31:59.447Z,18.73
2022-12-15T09:34:27.306Z,20.17
2022-12-15T09:36:54.867Z,19.02
2022-12-15T09:39:22.500Z,14.90
2022-12-15T09:41:55.074Z,15.82
2022-12-15T09:44:26.282Z,16.48
2022-12-15T09:47:06.016Z,15.55
2022-12-15T09:49:49.306Z,16.30
2022-12-15T09:52:19.456Z,16.20
2022-12-15T09:54:47.466Z,21.15
2022-12-15T09:57:24.873Z,16.13
2022-12-15T10:00:07.250Z,15.80
2022-12-15T10:03:11.530Z,15.82
2022-12-15T10:06:07.421Z,15.93
2022-12-15T10:08:39.270Z,20.48
2022-12-15T10:11:59.233Z,16.63
2022-12-15T10:14:52.222Z,16.90
2022-12-15T10:17:40.055Z,14.88
2022-12-15T10:20:22.614Z,18.33
2022-12-15T10:22:58.335Z,16.83
2022-12-15T10:28:34.367Z,16.80
2022-12-15T10:31:09.016Z,18.60
2022-12-15T10:33:50.597Z,17.38
2022-12-15T10:36:19.914Z,13.93
2022-12-15T10:42:06.124Z,19.95
2022-12-15T10:44:59.183Z,19.05
2022-12-15T10:48:18.039Z,15.52
2022-12-15T10:50:50.365Z,13.55
2022-12-15T10:53:35.807Z,16.33
2022-12-15T10:56:07.632Z,15.93
2022-12-15T10:58:47.830Z,19.55
2022-12-15T11:01:20.256Z,15.48
2022-12-15T11:03:51.893Z,15.73
2022-12-15T11:06:22.922Z,16.77
2022-12-15T11:08:53.002Z,16.05
2022-12-15T11:11:46.514Z,13.38
2022-12-15T11:14:18.101Z,14.35
2022-12-15T11:16:52.991Z,13.00
2022-12-15T11:19:31.388Z,14.02
2022-12-15T11:22:07.432Z,14.48
2022-12-15T11:24:41.382Z,19.80
2022-12-15T11:27:18.801Z,16.92
2022-12-15T11:29:57.847Z,16.17
2022-12-15T11:32:30.225Z,15.07
2022-12-15T11:34:58.252Z,12.80
2022-12-15T11:37:39.330Z,13.45
2022-12-15T11:40:30.819Z,20.50
2022-12-15T11:43:37.193Z,14.15
2022-12-15T11:46:22.777Z,16.73
2022-12-15T11:49:12.878Z,20.48
2022-12-15T11:51:45.367Z,17.27
2022-12-15T11:54:25.663Z,16.40
2022-12-15T11:57:00.638Z,13.73
2022-12-15T11:59:49.420Z,16.00
2022-12-15T12:02:39.843Z,14.63
2022-12-15T12:05:37.094Z,17.48
2022-12-15T12:08:17.486Z,15.98
2022-12-15T12:10:53.710Z,13.93
2022-12-15T12:13:29.859Z,15.02
2022-12-15T12:16:07.410Z,12.30
2022-12-15T12:18:39.658Z,17.73
2022-12-15T12:21:10.350Z,16.90
2022-12-15T12:23:44.016Z,13.23
2022-12-15T12:26:17.911Z,15.40
2022-12-15T12:28:49.118Z,20.90
2022-12-15T12:31:26.274Z,14.88
2022-12-15T12:33:59.399Z,15.35
2022-12-15T12:36:27.309Z,13.75
2022-12-15T12:38:57.388Z,16.67
2022-12-15T12:41:37.074Z,12.20
2022-12-15T12:44:12.108Z,15.05
2022-12-15T12:46:45.406Z,15.88
2022-12-15T12:49:26.779Z,13.32
2022-12-15T12:51:56.500Z,14.95
2022-12-15T12:54:47.674Z,13.35
2022-12-15T12:57:43.278Z,15.35
2022-12-15T13:00:23.166Z,13.10
2022-12-15T13:03:16.478Z,15.18
2022-12-15T13:05:47.162Z,13.45
2022-12-15T13:08:52.236Z,13.40
2022-12-15T13:11:56.731Z,11.85
2022-12-15T13:14:36.304Z,11.25
2022-12-15T13:17:25.943Z,11.27
2022-12-15T13:20:23.824Z,10.63
2022-12-15T13:22:51.851Z,11.90
2022-12-15T13:25:35.661Z,12.23
2022-12-15T13:28:27.836Z,10.50
2022-12-15T13:31:34.041Z,10.60
2022-12-15T13:34:20.636Z,11.07
2022-12-15T13:36:57.325Z,12.27
2022-12-15T13:39:57.368Z,11.07
2022-12-15T13:42:40.224Z,11.30
2022-12-15T13:45:42.414Z,13.57
2022-12-15T13:48:23.071Z,11.05
2022-12-15T13:50:58.033Z,12.73
2022-12-15T13:53:30.118Z,9.63
2022-12-15T13:56:08.096Z,8.10
2022-12-15T13:58:44.375Z,13.05
2022-12-15T14:01:32.210Z,13.55
2022-12-15T14:04:06.000Z,15.75
2022-12-15T14:06:39.629Z,13.80
2022-12-15T14:09:13.970Z,12.60
2022-12-15T14:11:53.077Z,11.85
2022-12-15T14:14:24.494Z,13.70
2022-12-15T14:16:58.886Z,12.88
2022-12-15T14:19:38.830Z,11.50
2022-12-15T14:22:27.039Z,11.50
2022-12-15T14:25:02.514Z,14.23
2022-12-15T14:27:32.638Z,11.45
2022-12-15T14:30:12.393Z,11.48
2022-12-15T14:32:40.779Z,13.07
2022-12-15T14:35:14.606Z,15.20
2022-12-15T14:37:43.911Z,13.65
2022-12-15T14:40:16.226Z,10.38
2022-12-15T14:42:44.953Z,13.77
2022-12-15T14:45:20.992Z,11.18
2022-12-15T14:48:21.375Z,13.98
2022-12-15T14:50:49.014Z,11.13
2022-12-15T14:53:24.557Z,11.00
2022-12-15T14:56:00.592Z,9.95
2022-12-15T14:58:33.751Z,15.48
2022-12-15T15:01:03.003Z,12.98
2022-12-15T15:03:04.488Z,20.08
2022-12-15T15:03:06.627Z,19.58
2022-12-15T15:03:38.230Z,11.10
2022-12-15T15:06:18.715Z,9.10
2022-12-15T15:08:50.323Z,10.38
2022-12-15T15:11:29.231Z,11.02
2022-12-15T15:14:03.813Z,14.55
2022-12-15T15:16:50.027Z,11.95
2022-12-15T15:19:27.064Z,11.95
2022-12-15T15:21:57.805Z,12.38
2022-12-15T15:24:30.698Z,11.65
2022-12-15T15:27:24.964Z,10.60
2022-12-15T15:29:53.513Z,9.65
2022-12-15T15:32:25.247Z,12.80
2022-12-15T15:34:53.284Z,10.45
2022-12-15T15:37:25.281Z,14.00
2022-12-15T15:39:55.752Z,11.75
2022-12-15T15:42:27.914Z,12.07
2022-12-15T15:45:00.236Z,10.25
2022-12-15T15:47:28.478Z,12.45
2022-12-15T15:49:59.645Z,10.57
2022-12-15T15:52:32.049Z,12.32
2022-12-15T15:55:00.490Z,12.95
2022-12-15T15:57:28.353Z,11.18
2022-12-15T15:59:57.324Z,15.80
2022-12-15T16:02:25.945Z,10.70
2022-12-15T16:04:53.977Z,9.98
2022-12-15T16:07:26.178Z,11.15
2022-12-15T16:09:56.475Z,13.30
2022-12-15T16:12:27.672Z,17.83
2022-12-15T16:14:56.117Z,16.83
2022-12-15T16:17:24.018Z,15.13
2022-12-15T16:19:53.609Z,14.73
2022-12-15T16:22:23.547Z,16.38
2022-12-15T16:24:51.525Z,22.33
2022-12-15T16:27:20.915Z,15.15
2022-12-15T16:29:48.773Z,18.52
2022-12-15T16:32:16.679Z,14.35
2022-12-15T16:34:44.633Z,16.05
2022-12-15T16:37:25.731Z,17.45
2022-12-15T16:39:53.586Z,15.75
2022-12-15T16:42:23.054Z,16.73
2022-12-15T16:44:50.884Z,16.73
2022-12-15T16:47:19.146Z,19.50
2022-12-15T16:49:47.092Z,16.55
2022-12-15T16:52:20.928Z,13.82
2022-12-15T16:54:50.357Z,20.98
2022-12-15T16:57:18.528Z,15.95
2022-12-15T16:59:49.738Z,13.25
2022-12-15T17:02:28.380Z,15.57
2022-12-15T17:04:56.498Z,17.77
2022-12-15T17:07:26.112Z,14.73
2022-12-15T17:09:53.943Z,17.50
2022-12-15T17:12:21.711Z,14.85
2022-12-15T17:14:50.709Z,15.07
2022-12-15T17:17:21.241Z,17.08
2022-12-15T17:20:19.692Z,16.52
2022-12-15T17:22:37.594Z,15.70
2022-12-15T17:25:06.273Z,15.77
2022-12-15T17:27:34.276Z,18.17
2022-12-15T17:30:03.728Z,16.45
2022-12-15T17:32:31.454Z,19.85
2022-12-15T17:34:59.161Z,20.23
2022-12-15T17:37:31.865Z,19.92
2022-12-15T17:40:03.002Z,16.63
2022-12-15T17:42:30.758Z,14.68
2022-12-15T17:44:58.595Z,21.33
2022-12-15T17:47:30.289Z,17.20
2022-12-15T17:50:00.069Z,18.75
2022-12-15T17:52:30.401Z,20.77
2022-12-15T17:55:01.802Z,20.33
2022-12-15T17:57:32.773Z,21.55
2022-12-15T18:00:03.801Z,18.40
2022-12-15T18:02:34.600Z,19.92
2022-12-15T18:05:02.449Z,21.40
2022-12-15T18:07:37.018Z,17.45
2022-12-15T18:10:06.335Z,21.23
2022-12-15T18:12:36.610Z,18.75
2022-12-15T18:15:20.508Z,16.85
2022-12-15T18:17:50.261Z,20.92
2022-12-15T18:20:18.944Z,17.40
2022-12-15T18:22:48.756Z,20.48
2022-12-15T18:25:21.051Z,17.40
2022-12-15T18:27:51.294Z,19.45
2022-12-15T18:30:21.271Z,18.73
2022-12-15T18:32:52.455Z,21.98
2022-12-15T18:35:34.209Z,19.85
2022-12-15T18:38:04.368Z,21.02
2022-12-15T18:40:31.973Z,19.63
2022-12-15T18:42:59.757Z,17.75
2022-12-15T18:45:28.554Z,20.70
2022-12-15T18:47:57.701Z,20.70
2022-12-15T18:50:27.224Z,19.20
2022-12-15T18:52:59.599Z,18.88
2022-12-15T18:55:30.534Z,20.50
2022-12-15T18:57:58.777Z,17.88
2022-12-15T19:00:28.499Z,17.88
2022-12-15T19:03:00.066Z,24.58
2022-12-15T19:05:29.548Z,20.40
2022-12-15T19:07:59.987Z,20.15
2022-12-15T19:10:29.716Z,21.17
2022-12-15T19:12:58.799Z,19.02
2022-12-15T19:15:27.562Z,22.33
2022-12-15T19:18:14.449Z,20.70
2022-12-15T19:20:59.979Z,23.35
2022-12-15T19:23:27.691Z,24.60
2022-12-15T19:25:55.625Z,20.35
2022-12-15T19:28:25.118Z,23.05
2022-12-15T19:30:53.159Z,19.98
2022-12-15T19:33:22.796Z,20.15
2022-12-15T19:35:54.850Z,20.08
2022-12-15T19:38:27.268Z,18.00
2022-12-15T19:40:56.383Z,23.15
2022-12-15T19:43:25.272Z,26.48
2022-12-15T19:45:53.985Z,21.50
2022-12-15T19:48:24.251Z,19.50
2022-12-15T19:50:54.685Z,22.60
2022-12-15T19:53:26.537Z,20.65
2022-12-15T19:55:56.227Z,19.55
2022-12-15T19:58:28.465Z,21.88
2022-12-15T20:00:57.867Z,22.38
2022-12-15T20:03:28.077Z,23.10
2022-12-15T20:05:57.347Z,22.23
2022-12-15T20:08:27.152Z,24.35
2022-12-15T20:10:56.087Z,24.02
2022-12-15T20:13:26.453Z,22.52
2022-12-15T20:15:54.726Z,21.08
2022-12-15T20:18:22.465Z,25.08
2022-12-15T20:20:51.927Z,23.48
2022-12-15T20:23:21.855Z,28.23
2022-12-15T20:25:49.878Z,23.70
2022-12-15T20:28:20.655Z,25.25
2022-12-15T20:30:49.028Z,33.80
2022-12-15T20:33:18.164Z,29.90
2022-12-15T20:35:48.315Z,26.45
2022-12-15T20:38:27.438Z,23.45
2022-12-15T20:40:56.303Z,24.17
2022-12-15T20:43:25.675Z,20.38
2022-12-15T20:46:01.774Z,24.95
2022-12-15T20:48:31.164Z,23.48
2022-12-15T20:51:01.824Z,21.23
2022-12-15T20:53:34.123Z,21.20
2022-12-15T20:56:02.400Z,22.77
2022-12-15T20:58:33.244Z,25.58
2022-12-15T21:01:01.713Z,24.67
2022-12-15T21:03:31.995Z,21.42
2022-12-15T21:06:01.145Z,24.73
2022-12-15T21:08:31.371Z,24.55
2022-12-15T21:11:02.933Z,22.73
2022-12-15T21:13:35.400Z,22.50
2022-12-15T21:16:03.561Z,26.52
2022-12-15T21:21:25.478Z,19.75
2022-12-15T21:23:53.274Z,24.27
2022-12-15T21:26:25.247Z,25.02
2022-12-15T21:28:56.721Z,25.40
2022-12-15T21:31:25.263Z,23.20
2022-12-15T21:33:53.189Z,24.90
2022-12-15T21:36:23.296Z,24.02
2022-12-15T21:38:52.845Z,26.50
2022-12-15T21:41:25.182Z,25.60
2022-12-15T21:43:52.914Z,22.98
2022-12-15T21:46:28.510Z,21.95
2022-12-15T21:49:14.442Z,28.98
2022-12-15T21:51:44.462Z,24.80
2022-12-15T21:54:17.857Z,24.00
2022-12-15T21:56:47.972Z,28.23
2022-12-15T21:59:21.102Z,27.13
2022-12-15T22:01:49.483Z,28.90
2022-12-15T22:04:22.362Z,26.25
2022-12-15T22:06:50.323Z,28.67
2022-12-15T22:09:19.336Z,27.42
2022-12-15T22:11:51.161Z,22.95
2022-12-15T22:14:25.235Z,28.52
2022-12-15T22:16:53.065Z,23.98
2022-12-15T22:19:21.327Z,25.38
2022-12-15T22:21:48.993Z,26.98
2022-12-15T22:24:16.752Z,28.27
2022-12-15T22:26:44.662Z,30.27
2022-12-15T22:29:17.430Z,26.63
2022-12-15T22:31:45.144Z,28.73
2022-12-15T22:34:14.651Z,28.08
2022-12-15T22:36:42.541Z,27.48
2022-12-15T22:39:11.318Z,25.05
2022-12-15T22:41:41.903Z,24.27
2022-12-15T22:44:19.118Z,25.45
2022-12-15T22:46:47.863Z,25.20
2022-12-15T22:49:18.850Z,25.08
2022-12-15T22:51:48.291Z,31.35
2022-12-15T22:54:21.475Z,22.33
2022-12-15T22:56:52.084Z,23.75
2022-12-15T22:59:26.933Z,24.48
2022-12-15T23:01:55.632Z,26.67
2022-12-15T23:04:23.660Z,27.80
2022-12-15T23:06:51.796Z,23.45
2022-12-15T23:09:19.704Z,26.15
2022-12-15T23:11:46.531Z,22.13
2022-12-15T23:14:16.359Z,25.20
2022-12-15T23:16:45.489Z,24.60
2022-12-15T23:19:23.697Z,24.98
2022-12-15T23:21:52.021Z,28.38
2022-12-15T23:24:19.814Z,27.80
2022-12-15T23:26:47.695Z,24.50
2022-12-15T23:29:15.476Z,24.45
2022-12-15T23:31:43.331Z,24.75
2022-12-15T23:34:12.658Z,22.15
2022-12-15T23:36:40.346Z,23.25
2022-12-15T23:39:08.111Z,21.75
2022-12-15T23:41:36.461Z,27.83
2022-12-15T23:44:05.634Z,24.95
2022-12-15T23:46:33.994Z,27.90
2022-12-15T23:49:02.163Z,22.42
2022-12-15T23:51:31.227Z,26.33
2022-12-15T23:53:59.658Z,24.75
2022-12-15T23:56:27.379Z,20.15
2022-12-15T23:58:57.087Z,27.50
